sensor_id;sensor_type;location;lat;lon;timestamp;pressure;altitude;pressure_sealevel;temperature;humidity
60642;BME280;46837;52.446;-1.930;2023-04-28T00:00:09;99386.49;;;9.48;86.68
60642;BME280;46837;52.446;-1.930;2023-04-28T00:01:09;99383.62;;;9.47;86.56
60642;BME280;46837;52.446;-1.930;2023-04-28T00:02:09;99385.15;;;9.48;86.79
60642;BME280;46837;52.446;-1.930;2023-04-28T00:03:09;99380.82;;;9.48;86.73
60642;BME280;46837;52.446;-1.930;2023-04-28T00:04:09;99380.66;;;9.50;86.76
60642;BME280;46837;52.446;-1.930;2023-04-28T00:05:09;99379.96;;;9.44;86.88
60642;BME280;46837;52.446;-1.930;2023-04-28T00:06:09;99377.79;;;9.48;86.94
60642;BME280;46837;52.446;-1.930;2023-04-28T00:07:09;99372.64;;;9.50;86.71
60642;BME280;46837;52.446;-1.930;2023-04-28T00:08:09;99371.80;;;9.52;86.64
60642;BME280;46837;52.446;-1.930;2023-04-28T00:09:09;99370.91;;;9.47;86.78
60642;BME280;46837;52.446;-1.930;2023-04-28T00:10:09;99371.09;;;9.52;86.87
60642;BME280;46837;52.446;-1.930;2023-04-28T00:11:11;99366.22;;;9.55;86.66
60642;BME280;46837;52.446;-1.930;2023-04-28T00:12:09;99366.96;;;9.59;86.45
60642;BME280;46837;52.446;-1.930;2023-04-28T00:13:09;99365.41;;;9.64;86.29
60642;BME280;46837;52.446;-1.930;2023-04-28T00:14:09;99367.76;;;9.63;85.95
60642;BME280;46837;52.446;-1.930;2023-04-28T00:15:09;99359.74;;;9.63;86.08
60642;BME280;46837;52.446;-1.930;2023-04-28T00:16:09;99360.88;;;9.57;86.17
60642;BME280;46837;52.446;-1.930;2023-04-28T00:17:09;99358.88;;;9.53;86.66
60642;BME280;46837;52.446;-1.930;2023-04-28T00:18:09;99359.40;;;9.56;86.65
60642;BME280;46837;52.446;-1.930;2023-04-28T00:19:09;99355.82;;;9.53;86.51
60642;BME280;46837;52.446;-1.930;2023-04-28T00:20:09;99357.66;;;9.56;86.66
60642;BME280;46837;52.446;-1.930;2023-04-28T00:21:09;99356.89;;;9.56;86.59
60642;BME280;46837;52.446;-1.930;2023-04-28T00:22:09;99356.97;;;9.54;86.72
60642;BME280;46837;52.446;-1.930;2023-04-28T00:23:09;99358.18;;;9.60;86.59
60642;BME280;46837;52.446;-1.930;2023-04-28T00:24:09;99353.46;;;9.65;86.30
60642;BME280;46837;52.446;-1.930;2023-04-28T00:25:09;99356.34;;;9.65;86.23
60642;BME280;46837;52.446;-1.930;2023-04-28T00:26:09;99352.15;;;9.58;86.57
60642;BME280;46837;52.446;-1.930;2023-04-28T00:27:09;99350.29;;;9.56;86.79
60642;BME280;46837;52.446;-1.930;2023-04-28T00:28:09;99350.07;;;9.57;86.92
60642;BME280;46837;52.446;-1.930;2023-04-28T00:29:09;99350.03;;;9.63;86.87
60642;BME280;46837;52.446;-1.930;2023-04-28T00:30:09;99352.87;;;9.65;86.67
60642;BME280;46837;52.446;-1.930;2023-04-28T00:31:11;99348.67;;;9.63;86.76
60642;BME280;46837;52.446;-1.930;2023-04-28T00:32:09;99347.71;;;9.67;86.70
60642;BME280;46837;52.446;-1.930;2023-04-28T00:33:09;99347.04;;;9.69;
60642;BME280;46837;52.446;-1.930;2023-04-28T00:34:09;99346.44;;;9.70;86.47
60642;BME280;46837;52.446;-1.930;2023-04-28T00:35:09;99344.72;;;9.74;86.50
60642;BME280;46837;52.446;-1.930;2023-04-28T00:36:09;99343.61;;;9.77;86.40
60642;BME280;46837;52.446;-1.930;2023-04-28T00:37:09;99340.64;;;9.80;86.26
60642;BME280;46837;52.446;-1.930;2023-04-28T00:38:09;99341.20;;;9.72;86.28
60642;BME280;46837;52.446;-1.930;2023-04-28T00:39:09;99339.48;;;9.65;86.56
60642;BME280;46837;52.446;-1.930;2023-04-28T00:40:09;99339.36;;;9.59;86.97
60642;BME280;46837;52.446;-1.930;2023-04-28T00:41:09;99338.29;;;9.58;87.06
60642;BME280;46837;52.446;-1.930;2023-04-28T00:42:09;99337.15;;;9.55;87.21
60642;BME280;46837;52.446;-1.930;2023-04-28T00:43:09;99339.63;;;9.60;87.33
60642;BME280;46837;52.446;-1.930;2023-04-28T00:44:09;99343.28;;;9.52;87.15
60642;BME280;46837;52.446;-1.930;2023-04-28T00:45:09;99344.23;;;9.50;87.61
60642;BME280;46837;52.446;-1.930;2023-04-28T00:46:17;99340.28;;;9.51;87.44
60642;BME280;46837;52.446;-1.930;2023-04-28T00:47:09;99340.99;;;9.52;87.63
60642;BME280;46837;52.446;-1.930;2023-04-28T00:48:09;99339.16;;;9.57;87.44
60642;BME280;46837;52.446;-1.930;2023-04-28T00:49:09;99339.07;;;9.63;87.07
60642;BME280;46837;52.446;-1.930;2023-04-28T00:50:09;99337.73;;;9.60;87.06
60642;BME280;46837;52.446;-1.930;2023-04-28T00:51:09;99334.75;;;9.55;87.28
60642;BME280;46837;52.446;-1.930;2023-04-28T00:52:09;99335.62;;;9.58;87.53
60642;BME280;46837;52.446;-1.930;2023-04-28T00:53:09;99336.14;;;9.60;87.31
60642;BME280;46837;52.446;-1.930;2023-04-28T00:54:11;99334.38;;;9.64;87.21
60642;BME280;46837;52.446;-1.930;2023-04-28T00:55:09;99335.75;;;9.71;87.02
60642;BME280;46837;52.446;-1.930;2023-04-28T00:56:09;99335.50;;;9.74;86.65
60642;BME280;46837;52.446;-1.930;2023-04-28T00:57:09;99337.36;;;9.73;86.58
60642;BME280;46837;52.446;-1.930;2023-04-28T00:58:09;99335.86;;;9.70;86.62
60642;BME280;46837;52.446;-1.930;2023-04-28T00:59:09;99333.45;;;9.70;86.86
60642;BME280;46837;52.446;-1.930;2023-04-28T01:00:09;99334.33;;;9.69;86.93
60642;BME280;46837;52.446;-1.930;2023-04-28T01:01:09;99332.50;;;9.72;86.97
60642;BME280;46837;52.446;-1.930;2023-04-28T01:02:09;99330.70;;;9.75;86.75
60642;BME280;46837;52.446;-1.930;2023-04-28T01:03:09;99331.28;;;9.77;86.63
60642;BME280;46837;52.446;-1.930;2023-04-28T01:04:09;99331.20;;;9.80;86.58
60642;BME280;46837;52.446;-1.930;2023-04-28T01:05:09;99333.30;;;9.83;86.36
60642;BME280;46837;52.446;-1.930;2023-04-28T01:06:09;99329.29;;;9.87;86.30
60642;BME280;46837;52.446;-1.930;2023-04-28T01:07:09;99331.42;;;9.87;86.24
60642;BME280;46837;52.446;-1.930;2023-04-28T01:08:09;99325.93;;;9.84;86.15
60642;BME280;46837;52.446;-1.930;2023-04-28T01:09:09;99325.41;;;9.73;86.55
60642;BME280;46837;52.446;-1.930;2023-04-28T01:10:09;99324.07;;;9.76;86.80
60642;BME280;46837;52.446;-1.930;2023-04-28T01:11:09;99323.78;;;9.80;86.46
60642;BME280;46837;52.446;-1.930;2023-04-28T01:12:09;99323.75;;;9.78;86.48
60642;BME280;46837;52.446;-1.930;2023-04-28T01:13:09;99324.73;;;9.79;86.57
60642;BME280;46837;52.446;-1.930;2023-04-28T01:14:09;99325.00;;;9.84;86.39
60642;BME280;46837;52.446;-1.930;2023-04-28T01:15:15;99322.76;;;9.79;86.40
60642;BME280;46837;52.446;-1.930;2023-04-28T01:16:09;99324.05;;;9.80;86.56
60642;BME280;46837;52.446;-1.930;2023-04-28T01:17:09;99325.69;;;9.79;86.66
60642;BME280;46837;52.446;-1.930;2023-04-28T01:18:09;99325.98;;;9.83;86.51
60642;BME280;46837;52.446;-1.930;2023-04-28T01:19:20;99329.56;;;9.87;86.27
60642;BME280;46837;52.446;-1.930;2023-04-28T01:20:09;99332.32;;;9.91;86.15
60642;BME280;46837;52.446;-1.930;2023-04-28T01:21:09;99337.25;;;9.96;85.84
60642;BME280;46837;52.446;-1.930;2023-04-28T01:22:09;99332.75;;;10.00;85.69
60642;BME280;46837;52.446;-1.930;2023-04-28T01:23:13;99338.07;;;10.01;85.50
60642;BME280;46837;52.446;-1.930;2023-04-28T01:24:09;99337.30;;;10.04;85.33
60642;BME280;46837;52.446;-1.930;2023-04-28T01:25:09;99333.62;;;10.07;85.30
60642;BME280;46837;52.446;-1.930;2023-04-28T01:26:09;99331.14;;;10.01;85.29
60642;BME280;46837;52.446;-1.930;2023-04-28T01:27:09;99334.83;;;9.97;85.54
60642;BME280;46837;52.446;-1.930;2023-04-28T01:28:09;99332.21;;;9.98;85.63
60642;BME280;46837;52.446;-1.930;2023-04-28T01:29:09;99330.29;;;10.00;85.49
60642;BME280;46837;52.446;-1.930;2023-04-28T01:30:09;99328.80;;;10.01;85.56
60642;BME280;46837;52.446;-1.930;2023-04-28T01:31:09;99327.57;;;9.98;85.64
60642;BME280;46837;52.446;-1.930;2023-04-28T01:32:09;99324.10;;;9.96;85.74
60642;BME280;46837;52.446;-1.930;2023-04-28T01:33:09;99318.29;;;9.98;85.89
60642;BME280;46837;52.446;-1.930;2023-04-28T01:34:09;99321.84;;;9.97;85.85
60642;BME280;46837;52.446;-1.930;2023-04-28T01:35:09;99317.69;;;9.91;86.14
60642;BME280;46837;52.446;-1.930;2023-04-28T01:36:09;99315.78;;;9.90;86.33
60642;BME280;46837;52.446;-1.930;2023-04-28T01:37:09;99317.28;;;9.89;86.50
60642;BME280;46837;52.446;-1.930;2023-04-28T01:38:09;99314.28;;;9.89;86.54
60642;BME280;46837;52.446;-1.930;2023-04-28T01:39:09;99314.96;;;9.90;86.60
60642;BME280;46837;52.446;-1.930;2023-04-28T01:40:09;99314.82;;;9.90;86.49
60642;BME280;46837;52.446;-1.930;2023-04-28T01:41:09;99314.09;;;9.86;86.56
60642;BME280;46837;52.446;-1.930;2023-04-28T01:42:09;99316.21;;;9.86;86.85
60642;BME280;46837;52.446;-1.930;2023-04-28T01:43:09;99317.66;;;9.86;86.63
60642;BME280;46837;52.446;-1.930;2023-04-28T01:44:09;99317.53;;;9.91;86.55
60642;BME280;46837;52.446;-1.930;2023-04-28T01:45:09;99316.71;;;9.91;86.39
60642;BME280;46837;52.446;-1.930;2023-04-28T01:46:09;99318.97;;;9.88;86.59
60642;BME280;46837;52.446;-1.930;2023-04-28T01:47:09;99319.77;;;9.91;86.76
60642;BME280;46837;52.446;-1.930;2023-04-28T01:48:09;99319.68;;;9.96;86.55
60642;BME280;46837;52.446;-1.930;2023-04-28T01:49:09;99317.80;;;9.98;86.46
60642;BME280;46837;52.446;-1.930;2023-04-28T01:50:09;99317.82;;;9.95;86.37
60642;BME280;46837;52.446;-1.930;2023-04-28T01:51:09;99315.51;;;9.90;86.64
60642;BME280;46837;52.446;-1.930;2023-04-28T01:52:09;99317.00;;;9.89;86.83
60642;BME280;46837;52.446;-1.930;2023-04-28T01:53:09;99316.41;;;9.88;86.76
60642;BME280;46837;52.446;-1.930;2023-04-28T01:54:09;99314.88;;;9.89;86.83
60642;BME280;46837;52.446;-1.930;2023-04-28T01:55:09;99318.37;;;9.82;86.92
60642;BME280;46837;52.446;-1.930;2023-04-28T01:56:09;99317.39;;;9.81;87.34
60642;BME280;46837;52.446;-1.930;2023-04-28T01:57:09;99317.99;;;9.87;87.18
60642;BME280;46837;52.446;-1.930;2023-04-28T01:58:09;99319.03;;;9.93;86.87
60642;BME280;46837;52.446;-1.930;2023-04-28T01:59:09;99317.96;;;9.98;86.65
60642;BME280;46837;52.446;-1.930;2023-04-28T02:00:09;99317.91;;;9.97;86.46
60642;BME280;46837;52.446;-1.930;2023-04-28T02:01:09;99319.16;;;9.99;86.55
60642;BME280;46837;52.446;-1.930;2023-04-28T02:02:09;99316.81;;;9.93;86.51
60642;BME280;46837;52.446;-1.930;2023-04-28T02:03:09;99319.43;;;9.91;86.74
60642;BME280;46837;52.446;-1.930;2023-04-28T02:04:09;99323.50;;;9.90;86.80
60642;BME280;46837;52.446;-1.930;2023-04-28T02:05:09;99316.98;;;9.90;86.89
60642;BME280;46837;52.446;-1.930;2023-04-28T02:06:09;99317.80;;;9.97;86.78
60642;BME280;46837;52.446;-1.930;2023-04-28T02:07:09;99317.66;;;10.01;86.60
60642;BME280;46837;52.446;-1.930;2023-04-28T02:08:09;99318.46;;;9.97;86.59
60642;BME280;46837;52.446;-1.930;2023-04-28T02:09:09;99318.07;;;9.99;86.70
60642;BME280;46837;52.446;-1.930;2023-04-28T02:10:09;99314.88;;;10.01;86.62
60642;BME280;46837;52.446;-1.930;2023-04-28T02:11:09;99313.79;;;10.00;86.54
60642;BME280;46837;52.446;-1.930;2023-04-28T02:12:09;99312.83;;;9.98;86.63
60642;BME280;46837;52.446;-1.930;2023-04-28T02:13:09;99316.40;;;9.96;86.79
60642;BME280;46837;52.446;-1.930;2023-04-28T02:14:09;99313.57;;;9.94;86.97
60642;BME280;46837;52.446;-1.930;2023-04-28T02:15:09;99310.78;;;9.97;86.84
60642;BME280;46837;52.446;-1.930;2023-04-28T02:16:09;99306.71;;;9.99;86.82
60642;BME280;46837;52.446;-1.930;2023-04-28T02:17:09;99308.30;;;9.99;86.89
60642;BME280;46837;52.446;-1.930;2023-04-28T02:18:09;99304.86;;;9.98;86.90
60642;BME280;46837;52.446;-1.930;2023-04-28T02:19:09;99307.97;;;9.98;87.03
60642;BME280;46837;52.446;-1.930;2023-04-28T02:20:09;99305.57;;;9.97;86.98
60642;BME280;46837;52.446;-1.930;2023-04-28T02:21:11;99306.31;;;9.95;87.04
60642;BME280;46837;52.446;-1.930;2023-04-28T02:22:09;99306.30;;;9.96;87.15
60642;BME280;46837;52.446;-1.930;2023-04-28T02:23:09;99309.45;;;9.97;86.98
60642;BME280;46837;52.446;-1.930;2023-04-28T02:24:09;99307.70;;;9.92;87.02
60642;BME280;46837;52.446;-1.930;2023-04-28T02:25:09;99307.98;;;9.90;87.23
60642;BME280;46837;52.446;-1.930;2023-04-28T02:26:09;99308.46;;;9.93;87.30
60642;BME280;46837;52.446;-1.930;2023-04-28T02:27:09;99307.54;;;9.92;87.23
60642;BME280;46837;52.446;-1.930;2023-04-28T02:28:09;99310.78;;;9.96;87.26
60642;BME280;46837;52.446;-1.930;2023-04-28T02:29:09;99311.57;;;10.00;87.02
60642;BME280;46837;52.446;-1.930;2023-04-28T02:30:09;99315.00;;;10.06;86.85
60642;BME280;46837;52.446;-1.930;2023-04-28T02:31:09;99317.18;;;10.12;86.51
60642;BME280;46837;52.446;-1.930;2023-04-28T02:32:09;99314.75;;;10.15;86.33
60642;BME280;46837;52.446;-1.930;2023-04-28T02:33:09;99312.64;;;10.19;86.15
60642;BME280;46837;52.446;-1.930;2023-04-28T02:34:09;99310.54;;;10.22;85.91
60642;BME280;46837;52.446;-1.930;2023-04-28T02:35:09;99310.54;;;10.22;85.89
60642;BME280;46837;52.446;-1.930;2023-04-28T02:36:09;99311.19;;;10.26;85.75
60642;BME280;46837;52.446;-1.930;2023-04-28T02:37:09;99314.08;;;10.27;85.70
60642;BME280;46837;52.446;-1.930;2023-04-28T02:38:09;99309.98;;;10.27;85.60
60642;BME280;46837;52.446;-1.930;2023-04-28T02:39:09;99308.74;;;10.22;85.80
60642;BME280;46837;52.446;-1.930;2023-04-28T02:40:09;99308.38;;;10.21;86.04
60642;BME280;46837;52.446;-1.930;2023-04-28T02:41:09;99310.37;;;10.26;86.10
60642;BME280;46837;52.446;-1.930;2023-04-28T02:42:09;99308.79;;;10.28;85.70
60642;BME280;46837;52.446;-1.930;2023-04-28T02:43:09;99305.86;;;10.31;85.53
60642;BME280;46837;52.446;-1.930;2023-04-28T02:44:09;99304.24;;;10.32;85.50
60642;BME280;46837;52.446;-1.930;2023-04-28T02:45:09;99302.39;;;10.24;85.58
60642;BME280;46837;52.446;-1.930;2023-04-28T02:46:09;99303.11;;;10.22;86.00
60642;BME280;46837;52.446;-1.930;2023-04-28T02:47:09;99301.69;;;10.22;86.03
60642;BME280;46837;52.446;-1.930;2023-04-28T02:48:09;99302.43;;;10.21;86.09
60642;BME280;46837;52.446;-1.930;2023-04-28T02:49:09;99299.18;;;10.22;86.06
60642;BME280;46837;52.446;-1.930;2023-04-28T02:50:09;99302.18;;;10.22;86.10
60642;BME280;46837;52.446;-1.930;2023-04-28T02:51:09;99301.58;;;10.27;85.88
60642;BME280;46837;52.446;-1.930;2023-04-28T02:52:09;99299.55;;;10.28;85.79
60642;BME280;46837;52.446;-1.930;2023-04-28T02:53:09;99298.06;;;10.20;85.91
60642;BME280;46837;52.446;-1.930;2023-04-28T02:54:09;99297.95;;;10.20;86.20
60642;BME280;46837;52.446;-1.930;2023-04-28T02:55:09;99296.42;;;10.21;86.16
60642;BME280;46837;52.446;-1.930;2023-04-28T02:56:09;99297.54;;;10.18;86.22
60642;BME280;46837;52.446;-1.930;2023-04-28T02:57:09;99295.25;;;10.22;86.16
60642;BME280;46837;52.446;-1.930;2023-04-28T02:58:09;99295.22;;;10.25;85.99
60642;BME280;46837;52.446;-1.930;2023-04-28T02:59:09;99298.57;;;10.26;85.96
60642;BME280;46837;52.446;-1.930;2023-04-28T03:00:09;99298.96;;;10.23;85.94
60642;BME280;46837;52.446;-1.930;2023-04-28T03:01:09;99293.73;;;10.16;86.26
60642;BME280;46837;52.446;-1.930;2023-04-28T03:02:09;99294.93;;;10.15;86.39
60642;BME280;46837;52.446;-1.930;2023-04-28T03:03:09;99293.98;;;10.14;86.54
60642;BME280;46837;52.446;-1.930;2023-04-28T03:04:09;99293.84;;;10.15;86.55
60642;BME280;46837;52.446;-1.930;2023-04-28T03:05:09;99291.96;;;10.14;86.62
60642;BME280;46837;52.446;-1.930;2023-04-28T03:06:09;99295.62;;;10.12;86.69
60642;BME280;46837;52.446;-1.930;2023-04-28T03:07:09;99297.06;;;10.15;86.52
60642;BME280;46837;52.446;-1.930;2023-04-28T03:08:09;99299.08;;;10.16;86.47
60642;BME280;46837;52.446;-1.930;2023-04-28T03:09:09;99298.80;;;10.21;86.32
60642;BME280;46837;52.446;-1.930;2023-04-28T03:10:09;99299.23;;;10.24;86.01
60642;BME280;46837;52.446;-1.930;2023-04-28T03:11:09;99300.43;;;10.23;86.04
60642;BME280;46837;52.446;-1.930;2023-04-28T03:12:09;99297.70;;;10.24;86.04
60642;BME280;46837;52.446;-1.930;2023-04-28T03:13:09;99299.33;;;10.28;86.02
60642;BME280;46837;52.446;-1.930;2023-04-28T03:14:09;99303.07;;;10.31;85.81
60642;BME280;46837;52.446;-1.930;2023-04-28T03:15:10;99301.12;;;10.35;85.73
60642;BME280;46837;52.446;-1.930;2023-04-28T03:16:09;99297.96;;;10.34;85.65
60642;BME280;46837;52.446;-1.930;2023-04-28T03:17:09;99300.42;;;10.33;85.71
60642;BME280;46837;52.446;-1.930;2023-04-28T03:18:09;99300.26;;;10.33;85.82
60642;BME280;46837;52.446;-1.930;2023-04-28T03:19:09;99296.85;;;10.30;85.87
60642;BME280;46837;52.446;-1.930;2023-04-28T03:20:09;99297.80;;;10.33;85.80
60642;BME280;46837;52.446;-1.930;2023-04-28T03:21:09;99294.48;;;10.37;85.62
60642;BME280;46837;52.446;-1.930;2023-04-28T03:22:09;99298.24;;;10.33;85.67
60642;BME280;46837;52.446;-1.930;2023-04-28T03:23:09;99294.46;;;10.34;85.76
60642;BME280;46837;52.446;-1.930;2023-04-28T03:24:09;99292.86;;;10.31;85.73
60642;BME280;46837;52.446;-1.930;2023-04-28T03:25:09;99293.90;;;10.29;85.97
60642;BME280;46837;52.446;-1.930;2023-04-28T03:26:09;99290.11;;;10.28;86.13
60642;BME280;46837;52.446;-1.930;2023-04-28T03:27:09;99288.48;;;10.22;86.32
60642;BME280;46837;52.446;-1.930;2023-04-28T03:28:09;99286.56;;;10.24;86.48
60642;BME280;46837;52.446;-1.930;2023-04-28T03:29:09;99287.75;;;10.19;86.45
60642;BME280;46837;52.446;-1.930;2023-04-28T03:30:09;99287.52;;;10.20;86.58
60642;BME280;46837;52.446;-1.930;2023-04-28T03:31:09;99289.54;;;10.25;86.49
60642;BME280;46837;52.446;-1.930;2023-04-28T03:32:09;99290.16;;;10.27;86.31
60642;BME280;46837;52.446;-1.930;2023-04-28T03:33:09;99289.46;;;10.26;86.10
60642;BME280;46837;52.446;-1.930;2023-04-28T03:34:09;99293.61;;;10.27;86.16
60642;BME280;46837;52.446;-1.930;2023-04-28T03:35:09;99296.62;;;10.31;86.10
60642;BME280;46837;52.446;-1.930;2023-04-28T03:36:09;99297.25;;;10.34;85.94
60642;BME280;46837;52.446;-1.930;2023-04-28T03:37:09;99300.38;;;10.37;85.73
60642;BME280;46837;52.446;-1.930;2023-04-28T03:38:09;99299.47;;;10.41;85.68
60642;BME280;46837;52.446;-1.930;2023-04-28T03:39:09;99301.14;;;10.43;85.50
60642;BME280;46837;52.446;-1.930;2023-04-28T03:40:09;99299.98;;;10.44;85.40
60642;BME280;46837;52.446;-1.930;2023-04-28T03:41:09;99299.21;;;10.44;85.38
60642;BME280;46837;52.446;-1.930;2023-04-28T03:42:09;99302.60;;;10.45;85.41
60642;BME280;46837;52.446;-1.930;2023-04-28T03:43:09;99303.60;;;10.48;85.27
60642;BME280;46837;52.446;-1.930;2023-04-28T03:44:09;99301.69;;;10.48;85.19
60642;BME280;46837;52.446;-1.930;2023-04-28T03:45:09;99304.91;;;10.49;85.34
60642;BME280;46837;52.446;-1.930;2023-04-28T03:46:09;99302.95;;;10.48;85.31
60642;BME280;46837;52.446;-1.930;2023-04-28T03:47:09;99301.11;;;10.51;85.20
60642;BME280;46837;52.446;-1.930;2023-04-28T03:48:09;99306.74;;;10.50;85.38
60642;BME280;46837;52.446;-1.930;2023-04-28T03:49:09;99307.28;;;10.52;85.25
60642;BME280;46837;52.446;-1.930;2023-04-28T03:50:09;99307.57;;;10.55;85.10
60642;BME280;46837;52.446;-1.930;2023-04-28T03:51:09;99308.77;;;10.56;84.90
60642;BME280;46837;52.446;-1.930;2023-04-28T03:52:09;99312.59;;;10.56;84.91
60642;BME280;46837;52.446;-1.930;2023-04-28T03:53:09;99312.68;;;10.57;84.90
60642;BME280;46837;52.446;-1.930;2023-04-28T03:54:09;99314.80;;;10.59;84.74
60642;BME280;46837;52.446;-1.930;2023-04-28T03:55:09;99315.62;;;10.59;84.84
60642;BME280;46837;52.446;-1.930;2023-04-28T03:56:09;99318.97;;;10.61;84.87
60642;BME280;46837;52.446;-1.930;2023-04-28T03:57:09;99318.48;;;10.60;84.84
60642;BME280;46837;52.446;-1.930;2023-04-28T03:58:09;99316.85;;;10.60;84.82
60642;BME280;46837;52.446;-1.930;2023-04-28T03:59:09;99318.47;;;10.62;84.77
60642;BME280;46837;52.446;-1.930;2023-04-28T04:00:09;99316.51;;;10.61;84.62
60642;BME280;46837;52.446;-1.930;2023-04-28T04:01:09;99320.37;;;10.59;84.63
60642;BME280;46837;52.446;-1.930;2023-04-28T04:02:09;99321.96;;;10.57;84.76
60642;BME280;46837;52.446;-1.930;2023-04-28T04:03:09;99321.88;;;10.55;84.86
60642;BME280;46837;52.446;-1.930;2023-04-28T04:04:09;99321.99;;;10.56;84.88
60642;BME280;46837;52.446;-1.930;2023-04-28T04:05:09;99321.94;;;10.55;84.98
60642;BME280;46837;52.446;-1.930;2023-04-28T04:06:09;99323.84;;;10.56;84.94
60642;BME280;46837;52.446;-1.930;2023-04-28T04:07:09;99323.57;;;10.55;84.96
60642;BME280;46837;52.446;-1.930;2023-04-28T04:08:09;99327.07;;;10.54;85.16
60642;BME280;46837;52.446;-1.930;2023-04-28T04:09:09;99326.20;;;10.54;85.16
60642;BME280;46837;52.446;-1.930;2023-04-28T04:10:09;99322.76;;;10.54;85.18
60642;BME280;46837;52.446;-1.930;2023-04-28T04:11:09;99321.34;;;10.54;85.27
60642;BME280;46837;52.446;-1.930;2023-04-28T04:12:09;99320.84;;;10.56;85.23
60642;BME280;46837;52.446;-1.930;2023-04-28T04:13:09;99321.58;;;10.57;85.16
60642;BME280;46837;52.446;-1.930;2023-04-28T04:14:09;99320.48;;;10.59;85.07
60642;BME280;46837;52.446;-1.930;2023-04-28T04:15:09;99319.57;;;10.61;85.01
60642;BME280;46837;52.446;-1.930;2023-04-28T04:16:09;99322.40;;;10.63;84.93
60642;BME280;46837;52.446;-1.930;2023-04-28T04:17:09;99323.91;;;10.65;84.84
60642;BME280;46837;52.446;-1.930;2023-04-28T04:18:09;99319.04;;;10.66;84.87
60642;BME280;46837;52.446;-1.930;2023-04-28T04:19:09;99323.13;;;10.67;84.73
60642;BME280;46837;52.446;-1.930;2023-04-28T04:20:09;99323.64;;;10.70;84.70
60642;BME280;46837;52.446;-1.930;2023-04-28T04:21:09;99322.96;;;10.71;84.71
60642;BME280;46837;52.446;-1.930;2023-04-28T04:22:09;99324.98;;;10.71;84.78
60642;BME280;46837;52.446;-1.930;2023-04-28T04:23:09;99325.13;;;10.73;84.62
60642;BME280;46837;52.446;-1.930;2023-04-28T04:24:09;99325.80;;;10.71;84.72
60642;BME280;46837;52.446;-1.930;2023-04-28T04:25:09;99326.61;;;10.73;84.82
60642;BME280;46837;52.446;-1.930;2023-04-28T04:26:09;99323.77;;;10.72;84.72
60642;BME280;46837;52.446;-1.930;2023-04-28T04:27:09;99323.30;;;10.74;84.62
60642;BME280;46837;52.446;-1.930;2023-04-28T04:28:09;99324.00;;;10.76;84.33
60642;BME280;46837;52.446;-1.930;2023-04-28T04:29:09;99329.52;;;10.75;84.79
60642;BME280;46837;52.446;-1.930;2023-04-28T04:30:09;99326.61;;;10.73;85.10
60642;BME280;46837;52.446;-1.930;2023-04-28T04:31:09;99330.21;;;10.73;85.14
60642;BME280;46837;52.446;-1.930;2023-04-28T04:32:09;99328.73;;;10.73;85.22
60642;BME280;46837;52.446;-1.930;2023-04-28T04:33:09;99330.62;;;10.74;85.24
60642;BME280;46837;52.446;-1.930;2023-04-28T04:34:09;99330.89;;;10.76;85.26
60642;BME280;46837;52.446;-1.930;2023-04-28T04:35:09;99330.79;;;10.75;85.38
60642;BME280;46837;52.446;-1.930;2023-04-28T04:36:09;99333.62;;;10.74;85.53
60642;BME280;46837;52.446;-1.930;2023-04-28T04:37:09;99335.37;;;10.75;85.31
60642;BME280;46837;52.446;-1.930;2023-04-28T04:38:09;99331.93;;;10.75;85.35
60642;BME280;46837;52.446;-1.930;2023-04-28T04:39:09;99332.60;;;10.70;85.70
60642;BME280;46837;52.446;-1.930;2023-04-28T04:40:09;99334.43;;;10.71;85.79
60642;BME280;46837;52.446;-1.930;2023-04-28T04:41:09;99334.97;;;10.72;85.71
60642;BME280;46837;52.446;-1.930;2023-04-28T04:42:09;99332.82;;;10.70;85.77
60642;BME280;46837;52.446;-1.930;2023-04-28T04:43:09;99329.02;;;10.71;85.93
60642;BME280;46837;52.446;-1.930;2023-04-28T04:44:09;99329.23;;;10.72;85.76
60642;BME280;46837;52.446;-1.930;2023-04-28T04:45:09;99328.68;;;10.68;86.04
60642;BME280;46837;52.446;-1.930;2023-04-28T04:46:09;99331.62;;;10.68;86.16
60642;BME280;46837;52.446;-1.930;2023-04-28T04:47:09;99328.82;;;10.65;86.19
60642;BME280;46837;52.446;-1.930;2023-04-28T04:48:09;99335.27;;;10.63;86.32
60642;BME280;46837;52.446;-1.930;2023-04-28T04:49:09;99334.61;;;10.66;86.28
60642;BME280;46837;52.446;-1.930;2023-04-28T04:50:09;99337.34;;;10.65;86.21
60642;BME280;46837;52.446;-1.930;2023-04-28T04:51:09;99335.22;;;10.64;86.38
60642;BME280;46837;52.446;-1.930;2023-04-28T04:52:09;99339.45;;;10.62;86.45
60642;BME280;46837;52.446;-1.930;2023-04-28T04:53:09;99338.61;;;10.64;86.46
60642;BME280;46837;52.446;-1.930;2023-04-28T04:54:09;99338.88;;;10.70;86.24
60642;BME280;46837;52.446;-1.930;2023-04-28T04:55:09;99336.17;;;10.72;85.94
60642;BME280;46837;52.446;-1.930;2023-04-28T04:56:09;99338.36;;;10.73;85.83
60642;BME280;46837;52.446;-1.930;2023-04-28T04:57:09;99339.02;;;10.72;86.05
60642;BME280;46837;52.446;-1.930;2023-04-28T04:58:09;99344.42;;;10.74;86.18
60642;BME280;46837;52.446;-1.930;2023-04-28T04:59:09;99342.36;;;10.76;86.20
60642;BME280;46837;52.446;-1.930;2023-04-28T05:00:09;99341.37;;;10.77;86.01
60642;BME280;46837;52.446;-1.930;2023-04-28T05:01:09;99340.90;;;10.80;85.76
60642;BME280;46837;52.446;-1.930;2023-04-28T05:02:09;99342.81;;;10.81;85.68
60642;BME280;46837;52.446;-1.930;2023-04-28T05:03:09;99341.25;;;10.81;85.64
60642;BME280;46837;52.446;-1.930;2023-04-28T05:04:09;99342.94;;;10.83;85.56
60642;BME280;46837;52.446;-1.930;2023-04-28T05:05:09;99339.68;;;10.85;85.38
60642;BME280;46837;52.446;-1.930;2023-04-28T05:06:09;99340.15;;;10.83;85.61
60642;BME280;46837;52.446;-1.930;2023-04-28T05:07:09;99340.10;;;10.83;85.72
60642;BME280;46837;52.446;-1.930;2023-04-28T05:08:09;99341.16;;;10.85;85.69
60642;BME280;46837;52.446;-1.930;2023-04-28T05:09:09;99341.26;;;10.86;85.52
60642;BME280;46837;52.446;-1.930;2023-04-28T05:10:09;99342.32;;;10.89;85.46
60642;BME280;46837;52.446;-1.930;2023-04-28T05:11:09;99342.37;;;10.90;85.27
60642;BME280;46837;52.446;-1.930;2023-04-28T05:12:09;99344.71;;;10.90;85.34
60642;BME280;46837;52.446;-1.930;2023-04-28T05:13:09;99345.10;;;10.91;85.30
60642;BME280;46837;52.446;-1.930;2023-04-28T05:14:09;99346.16;;;10.92;85.33
60642;BME280;46837;52.446;-1.930;2023-04-28T05:15:09;99344.13;;;10.93;85.33